createdAt,value
2022-08-09T00:00:00.802Z,100244.03
2022-08-09T00:02:33.955Z,100252.22
2022-08-09T00:06:18.996Z,100245.13
2022-08-09T00:07:54.383Z,100253.00
2022-08-09T00:10:24.591Z,100239.34
2022-08-09T00:12:53.550Z,100254.56
2022-08-09T00:15:26.475Z,100262.47
2022-08-09T00:18:05.171Z,100262.16
2022-08-09T00:20:42.617Z,100259.00
2022-08-09T00:23:54.841Z,100249.63
2022-08-09T00:26:11.053Z,100249.66
2022-08-09T00:28:40.449Z,100253.53
2022-08-09T00:31:58.362Z,100237.91
2022-08-09T00:33:58.295Z,100249.72
2022-08-09T00:36:30.801Z,100245.41
2022-08-09T00:39:00.748Z,100246.25
2022-08-09T00:44:15.597Z,100253.72
2022-08-09T00:44:25.891Z,100245.91
2022-08-09T00:47:04.817Z,100242.38
2022-08-09T00:49:36.502Z,100245.91
2022-08-09T00:52:25.118Z,100236.16
2022-08-09T00:54:55.893Z,100246.69
2022-08-09T00:57:24.699Z,100246.28
2022-08-09T01:00:21.163Z,100249.06
2022-08-09T01:02:55.153Z,100243.97
2022-08-09T01:05:53.287Z,100241.59
2022-08-09T01:08:29.344Z,100229.97
2022-08-09T01:11:10.019Z,100242.50
2022-08-09T01:13:59.586Z,100249.16
2022-08-09T01:16:35.060Z,100243.72
2022-08-09T01:19:17.210Z,100239.06
2022-08-09T01:22:19.112Z,100239.44
2022-08-09T01:24:58.286Z,100246.91
2022-08-09T01:27:32.858Z,100229.38
2022-08-09T01:30:04.860Z,100225.09
2022-08-09T01:32:39.167Z,100220.88
2022-08-09T01:35:37.240Z,100219.69
2022-08-09T01:38:15.497Z,100220.88
2022-08-09T01:40:53.019Z,100206.41
2022-08-09T01:43:50.899Z,100219.69
2022-08-09T01:46:25.069Z,100210.72
2022-08-09T01:48:59.775Z,100213.47
2022-08-09T01:51:32.607Z,100211.84
2022-08-09T01:54:04.142Z,100213.03
2022-08-09T01:56:34.606Z,100213.03
2022-08-09T01:59:11.360Z,100199.25
2022-08-09T02:02:00.205Z,100199.25
2022-08-09T02:04:31.341Z,100196.88
2022-08-09T02:08:35.159Z,100200.78
2022-08-09T02:10:08.515Z,100201.25
2022-08-09T02:12:40.007Z,100203.59
2022-08-09T02:15:16.711Z,100200.47
2022-08-09T02:18:00.625Z,100200.91
2022-08-09T02:20:38.737Z,100195.06
2022-08-09T02:23:10.018Z,100203.28
2022-08-09T02:25:41.908Z,100206.06
2022-08-09T02:28:18.046Z,100210.78
2022-08-09T02:30:51.991Z,100210.03
2022-08-09T02:33:37.645Z,100217.50
2022-08-09T02:36:16.871Z,100228.91
2022-08-09T02:38:59.962Z,100221.91
2022-08-09T02:41:37.925Z,100228.16
2022-08-09T02:44:29.488Z,100227.75
2022-08-09T02:47:05.513Z,100229.34
2022-08-09T02:49:38.811Z,100230.53
2022-08-09T02:52:15.070Z,100230.53
2022-08-09T02:54:54.735Z,100225.47
2022-08-09T02:57:27.279Z,100236.78
2022-08-09T03:00:20.855Z,100240.28
2022-08-09T03:02:58.283Z,100250.88
2022-08-09T03:05:34.166Z,100236.03
2022-08-09T03:08:04.683Z,100252.03
2022-08-09T03:10:35.997Z,100252.03
2022-08-09T03:13:08.613Z,100247.31
2022-08-09T03:15:40.695Z,100256.66
2022-08-09T03:18:31.311Z,100257.44
2022-08-09T03:21:01.509Z,100261.38
2022-08-09T03:23:29.867Z,100264.47
2022-08-09T03:26:03.380Z,100255.47
2022-08-09T03:28:36.088Z,100259.72
2022-08-09T03:31:10.428Z,100263.28
2022-08-09T03:33:54.767Z,100251.53
2022-08-09T03:36:27.732Z,100264.78
2022-08-09T03:38:57.220Z,100272.75
2022-08-09T03:41:42.979Z,100268.38
2022-08-09T03:44:15.910Z,100279.66
2022-08-09T03:46:44.358Z,100266.38
2022-08-09T03:49:17.381Z,100265.63
2022-08-09T03:51:58.426Z,100272.31
2022-08-09T03:54:32.283Z,100274.84
2022-08-09T03:57:04.343Z,100271.66
2022-08-09T03:59:54.436Z,100273.84
2022-08-09T04:02:28.033Z,100270.63
2022-08-09T04:05:05.881Z,100269.56
2022-08-09T04:07:52.460Z,100277.88
2022-08-09T04:10:28.343Z,100278.94
2022-08-09T04:13:01.103Z,100275.25
2022-08-09T04:16:18.234Z,100269.34
2022-08-09T04:18:21.134Z,100268.16
2022-08-09T04:20:51.952Z,100276.19
2022-08-09T04:23:24.200Z,100282.09
2022-08-09T04:25:54.731Z,100273.34
2022-08-09T04:28:33.647Z,100272.09
2022-08-09T04:31:10.228Z,100276.09
2022-08-09T04:33:52.084Z,100282.00
2022-08-09T04:36:28.812Z,100271.06
2022-08-09T04:38:59.315Z,100280.31
2022-08-09T04:41:32.617Z,100271.84
2022-08-09T04:44:06.620Z,100269.81
2022-08-09T04:46:59.606Z,100273.66
2022-08-09T04:49:40.549Z,100268.38
2022-08-09T04:52:18.459Z,100286.13
2022-08-09T04:54:51.823Z,100277.72
2022-08-09T04:57:24.053Z,100281.22
2022-08-09T04:59:55.280Z,100275.00
2022-08-09T05:02:24.327Z,100278.75
2022-08-09T05:04:56.444Z,100291.63
2022-08-09T05:07:29.174Z,100284.03
2022-08-09T05:10:01.775Z,100287.34
2022-08-09T05:12:32.774Z,100289.78
2022-08-09T05:15:11.388Z,100299.28
2022-08-09T05:18:39.911Z,100302.19
2022-08-09T05:20:30.324Z,100300.22
2022-08-09T05:23:57.057Z,100293.88
2022-08-09T05:25:50.694Z,100299.78
2022-08-09T05:28:20.206Z,100297.22
2022-08-09T05:30:51.607Z,100300.81
2022-08-09T05:33:26.552Z,100304.25
2022-08-09T05:36:04.117Z,100291.47
2022-08-09T05:38:39.044Z,100306.00
2022-08-09T05:41:12.611Z,100297.34
2022-08-09T05:43:45.155Z,100301.16
2022-08-09T05:46:17.200Z,100314.13
2022-08-09T05:48:45.462Z,100307.09
2022-08-09T05:51:43.213Z,100300.97
2022-08-09T05:54:18.404Z,100309.22
2022-08-09T05:56:55.285Z,100308.59
2022-08-09T05:59:24.751Z,100332.78
2022-08-09T06:01:58.749Z,100305.09
2022-08-09T06:04:35.032Z,100304.13
2022-08-09T06:07:03.760Z,100302.91
2022-08-09T06:09:54.356Z,100308.31
2022-08-09T06:12:21.494Z,100316.78
2022-08-09T06:14:54.448Z,100311.09
2022-08-09T06:17:22.591Z,100305.56
2022-08-09T06:19:50.775Z,100308.75
2022-08-09T06:22:28.943Z,100313.25
2022-08-09T06:24:59.426Z,100321.41
2022-08-09T06:27:42.269Z,100321.44
2022-08-09T06:30:14.160Z,100321.75
2022-08-09T06:32:59.061Z,100324.69
2022-08-09T06:35:35.707Z,100326.69
2022-08-09T06:38:19.707Z,100327.28
2022-08-09T06:41:01.681Z,100324.19
2022-08-09T06:43:34.159Z,100311.88
2022-08-09T06:46:07.169Z,100317.72
2022-08-09T06:48:42.909Z,100320.66
2022-08-09T06:51:11.502Z,100327.09
2022-08-09T06:53:40.085Z,100314.22
2022-08-09T06:56:10.820Z,100328.53
2022-08-09T07:00:47.763Z,100324.81
2022-08-09T07:01:54.640Z,100318.66
2022-08-09T07:04:20.001Z,100310.56
2022-08-09T07:06:48.493Z,100313.88
2022-08-09T07:09:57.181Z,100315.28
2022-08-09T07:12:17.380Z,100315.66
2022-08-09T07:14:50.718Z,100320.50
2022-08-09T07:17:19.110Z,100311.84
2022-08-09T07:19:48.235Z,100310.16
2022-08-09T07:22:27.389Z,100317.09
2022-08-09T07:25:05.535Z,100315.53
2022-08-09T07:27:42.460Z,100316.50
2022-08-09T07:30:24.605Z,100310.47
2022-08-09T07:32:54.794Z,100308.00
2022-08-09T07:35:23.437Z,100312.75
2022-08-09T07:37:54.140Z,100305.97
2022-08-09T07:40:33.890Z,100312.31
2022-08-09T07:43:16.778Z,100308.81
2022-08-09T07:45:45.291Z,100303.81
2022-08-09T07:48:25.583Z,100318.97
2022-08-09T07:51:10.013Z,100316.84
2022-08-09T07:54:05.445Z,100318.81
2022-08-09T07:56:38.724Z,100320.09
2022-08-09T07:59:25.708Z,100323.47
2022-08-09T08:02:03.653Z,100319.50
2022-08-09T08:04:33.449Z,100317.22
2022-08-09T08:07:09.326Z,100327.84
2022-08-09T08:09:51.655Z,100317.34
2022-08-09T08:12:25.087Z,100317.47
2022-08-09T08:14:58.583Z,100321.72
2022-08-09T08:17:53.174Z,100304.59
2022-08-09T08:20:16.291Z,100318.13
2022-08-09T08:22:48.568Z,100321.94
2022-08-09T08:25:16.982Z,100312.88
2022-08-09T08:27:49.798Z,100334.66
2022-08-09T08:30:20.005Z,100309.03
2022-08-09T08:32:52.547Z,100314.97
2022-08-09T08:35:23.037Z,100333.00
2022-08-09T08:38:02.158Z,100321.16
2022-08-09T08:40:36.913Z,100313.16
2022-08-09T08:43:13.216Z,100302.72
2022-08-09T08:45:53.257Z,100314.25
2022-08-09T08:48:23.604Z,100314.06
2022-08-09T08:50:58.724Z,100324.53
2022-08-09T08:53:37.061Z,100319.50
2022-08-09T08:56:06.470Z,100305.97
2022-08-09T08:58:37.088Z,100317.38
2022-08-09T09:01:09.083Z,100315.44
2022-08-09T09:03:50.580Z,100309.66
2022-08-09T09:06:20.763Z,100306.34
2022-08-09T09:08:52.501Z,100310.88
2022-08-09T09:11:21.938Z,100323.69
2022-08-09T09:13:57.621Z,100301.66
2022-08-09T09:16:31.857Z,100319.44
2022-08-09T09:19:29.099Z,100314.72
2022-08-09T09:22:07.967Z,100298.81
2022-08-09T09:24:43.492Z,100294.84
2022-08-09T09:27:22.169Z,100305.47
2022-08-09T09:30:27.421Z,100291.72
2022-08-09T09:33:15.931Z,100289.97
2022-08-09T09:36:02.459Z,100295.41
2022-08-09T09:38:47.956Z,100303.66
2022-08-09T09:41:32.885Z,100303.22
2022-08-09T09:44:13.444Z,100290.66
2022-08-09T09:46:46.014Z,100288.66
2022-08-09T09:49:56.109Z,100282.88
2022-08-09T09:52:33.735Z,100295.75
2022-08-09T09:55:16.112Z,100285.81
2022-08-09T09:58:01.578Z,100287.66
2022-08-09T10:00:33.726Z,100278.69
2022-08-09T10:03:11.726Z,100274.63
2022-08-09T10:06:05.179Z,100280.72
2022-08-09T10:08:43.186Z,100276.72
2022-08-09T10:11:56.990Z,100267.78
2022-08-09T10:14:30.612Z,100270.84
2022-08-09T10:17:39.381Z,100284.03
2022-08-09T10:19:59.951Z,100277.19
2022-08-09T10:22:37.158Z,100281.50
2022-08-09T10:25:11.696Z,100268.09
2022-08-09T10:27:55.868Z,100273.44
2022-08-09T10:33:29.363Z,100264.84
2022-08-09T10:36:05.225Z,100273.63
2022-08-09T10:38:55.861Z,100258.34
2022-08-09T10:41:28.414Z,100264.69
2022-08-09T10:43:59.929Z,100268.34
2022-08-09T10:48:12.378Z,100273.53
2022-08-09T10:50:14.771Z,100288.94
2022-08-09T10:53:10.968Z,100276.16
2022-08-09T10:55:55.252Z,100271.19
2022-08-09T10:58:32.453Z,100267.66
2022-08-09T11:03:06.752Z,100253.41
2022-08-09T11:04:30.155Z,100272.22
2022-08-09T11:07:57.957Z,100260.00
2022-08-09T11:10:17.687Z,100260.47
2022-08-09T11:13:51.031Z,100261.75
2022-08-09T11:16:37.438Z,100275.47
2022-08-09T11:19:10.539Z,100256.38
2022-08-09T11:21:56.973Z,100264.09
2022-08-09T11:25:04.644Z,100261.75
2022-08-09T11:28:05.379Z,100259.16
2022-08-09T11:30:38.690Z,100248.34
2022-08-09T11:33:33.972Z,100257.59
2022-08-09T11:36:02.761Z,100261.75
2022-08-09T11:38:34.272Z,100268.41
2022-08-09T11:41:22.616Z,100245.56
2022-08-09T11:43:52.781Z,100254.66
2022-08-09T11:46:33.336Z,100242.78
2022-08-09T11:49:05.435Z,100240.78
2022-08-09T11:53:03.046Z,100257.91
2022-08-09T11:55:39.896Z,100240.03
2022-08-09T11:58:48.128Z,100255.22
2022-08-09T12:02:00.888Z,100247.06
2022-08-09T12:04:23.757Z,100251.81
2022-08-09T12:06:57.761Z,100246.34
2022-08-09T12:09:28.193Z,100245.75
2022-08-09T12:12:12.229Z,100236.34
2022-08-09T12:15:08.007Z,100238.91
2022-08-09T12:17:43.585Z,100233.09
2022-08-09T12:20:21.534Z,100254.03
2022-08-09T12:22:55.813Z,100245.69
2022-08-09T12:25:37.036Z,100243.53
2022-08-09T12:29:13.368Z,100245.63
2022-08-09T12:30:59.674Z,100232.19
2022-08-09T12:33:50.783Z,100228.28
2022-08-09T12:36:31.400Z,100228.75
2022-08-09T12:39:02.212Z,100226.78
2022-08-09T12:41:38.215Z,100224.84
2022-08-09T12:44:09.707Z,100229.47
2022-08-09T12:46:40.887Z,100228.72
2022-08-09T12:49:09.786Z,100232.72
2022-08-09T12:51:52.828Z,100233.22
2022-08-09T12:54:29.205Z,100214.56
2022-08-09T12:56:59.920Z,100218.03
2022-08-09T12:59:57.507Z,100207.34
2022-08-09T13:02:21.814Z,100225.13
2022-08-09T13:05:02.674Z,100227.03
2022-08-09T13:07:50.936Z,100220.06
2022-08-09T13:10:19.835Z,100219.88
2022-08-09T13:13:09.117Z,100233.25
2022-08-09T13:15:37.715Z,100224.75
2022-08-09T13:18:09.948Z,100215.88
2022-08-09T13:21:03.992Z,100215.09
2022-08-09T13:24:16.798Z,100209.63
2022-08-09T13:26:41.820Z,100204.22
2022-08-09T13:29:13.285Z,100206.59
2022-08-09T13:32:14.406Z,100199.56
2022-08-09T13:34:48.155Z,100208.78
2022-08-09T13:37:51.329Z,100195.34
2022-08-09T13:41:46.855Z,100191.09
2022-08-09T13:42:58.996Z,100190.84
2022-08-09T13:45:31.885Z,100188.19
2022-08-09T13:48:15.638Z,100187.09
2022-08-09T13:50:44.009Z,100196.25
2022-08-09T13:53:12.471Z,100188.22
2022-08-09T13:55:42.345Z,100183.78
2022-08-09T13:58:13.897Z,100180.88
2022-08-09T14:00:49.837Z,100175.81
2022-08-09T14:04:02.689Z,100184.66
2022-08-09T14:06:19.223Z,100178.03
2022-08-09T14:08:54.268Z,100178.78
2022-08-09T14:11:24.682Z,100174.19
2022-08-09T14:14:22.319Z,100175.56
2022-08-09T14:16:41.554Z,100177.09
2022-08-09T14:19:10.328Z,100176.78
2022-08-09T14:21:38.634Z,100179.00
2022-08-09T14:24:18.317Z,100176.16
2022-08-09T14:26:53.582Z,100172.31
2022-08-09T14:29:25.445Z,100161.16
2022-08-09T14:32:13.283Z,100165.06
2022-08-09T14:34:44.844Z,100161.16
2022-08-09T14:37:13.149Z,100160.06
2022-08-09T14:39:47.094Z,100169.09
2022-08-09T14:42:29.071Z,100149.19
2022-08-09T14:45:00.801Z,100159.69
2022-08-09T14:47:45.315Z,100164.63
2022-08-09T14:50:17.619Z,100168.09
2022-08-09T14:52:49.986Z,100167.72
2022-08-09T14:55:20.259Z,100159.38
2022-08-09T14:57:50.640Z,100160.03
2022-08-09T15:00:19.182Z,100158.16
2022-08-09T15:02:51.736Z,100165.81
2022-08-09T15:05:21.024Z,100169.56
2022-08-09T15:07:56.440Z,100163.69
2022-08-09T15:10:26.710Z,100157.53
2022-08-09T15:12:57.497Z,100166.69
2022-08-09T15:15:28.758Z,100154.84
2022-08-09T15:17:58.501Z,100158.44
2022-08-09T15:21:55.328Z,100153.69
2022-08-09T15:24:01.796Z,100161.38
2022-08-09T15:26:04.962Z,100149.59
2022-08-09T15:28:41.957Z,100162.63
2022-08-09T15:31:17.500Z,100166.91
2022-08-09T15:34:31.116Z,100158.72
2022-08-09T15:36:35.307Z,100149.31
2022-08-09T15:39:03.543Z,100160.72
2022-08-09T15:41:32.753Z,100153.41
2022-08-09T15:44:02.993Z,100156.34
2022-08-09T15:46:34.752Z,100148.09
2022-08-09T15:49:22.253Z,100157.75
2022-08-09T15:52:05.062Z,100156.78
2022-08-09T15:54:43.044Z,100153.13
2022-08-09T15:57:14.872Z,100156.94
2022-08-09T15:59:51.594Z,100167.47
2022-08-09T16:02:37.692Z,100156.22
2022-08-09T16:05:08.809Z,100156.03
2022-08-09T16:07:38.698Z,100151.22
2022-08-09T16:10:17.156Z,100140.44
2022-08-09T16:12:59.158Z,100148.69
2022-08-09T16:16:10.541Z,100148.28
2022-08-09T16:18:18.380Z,100155.22
2022-08-09T16:20:47.033Z,100164.50
2022-08-09T16:23:15.382Z,100155.34
2022-08-09T16:25:49.656Z,100155.16
2022-08-09T16:28:18.159Z,100146.19
2022-08-09T16:30:59.401Z,100158.66
2022-08-09T16:33:30.748Z,100157.59
2022-08-09T16:36:11.895Z,100159.03
2022-08-09T16:38:44.449Z,100166.44
2022-08-09T16:41:24.679Z,100157.94
2022-08-09T16:44:08.763Z,100153.09
2022-08-09T16:46:38.355Z,100161.16
2022-08-09T16:50:28.263Z,100163.72
2022-08-09T16:52:11.862Z,100164.03
2022-08-09T16:54:41.306Z,100156.22
2022-08-09T16:57:10.636Z,100157.53
2022-08-09T16:59:43.868Z,100159.31
2022-08-09T17:02:23.322Z,100164.47
2022-08-09T17:04:53.710Z,100168.22
2022-08-09T17:08:43.457Z,100162.38
2022-08-09T17:10:13.651Z,100165.47
2022-08-09T17:12:43.955Z,100156.94
2022-08-09T17:15:31.394Z,100165.78
2022-08-09T17:18:06.764Z,100158.59
2022-08-09T17:20:49.097Z,100150.53
2022-08-09T17:23:21.399Z,100160.78
2022-08-09T17:26:05.615Z,100158.16
2022-08-09T17:28:35.801Z,100154.91
2022-08-09T17:31:05.169Z,100153.22
2022-08-09T17:33:37.562Z,100160.47
2022-08-09T17:36:09.117Z,100153.31
2022-08-09T17:38:57.781Z,100154.16
2022-08-09T17:41:38.515Z,100154.50
2022-08-09T17:44:41.690Z,100157.13
2022-08-09T17:46:57.805Z,100163.69
2022-08-09T17:49:30.315Z,100161.38
2022-08-09T17:51:58.604Z,100160.78
2022-08-09T17:54:29.692Z,100164.16
2022-08-09T17:56:58.185Z,100157.38
2022-08-09T17:59:37.997Z,100171.75
2022-08-09T18:02:18.770Z,100168.03
2022-08-09T18:04:52.808Z,100172.69
2022-08-09T18:07:23.312Z,100184.47
2022-08-09T18:10:04.165Z,100179.66
2022-08-09T18:13:39.021Z,100185.75
2022-08-09T18:15:22.030Z,100181.28
2022-08-09T18:18:10.131Z,100185.41
2022-08-09T18:21:18.832Z,100185.06
2022-08-09T18:24:11.156Z,100193.88
2022-08-09T18:26:32.581Z,100188.72
2022-08-09T18:30:40.039Z,100194.16
2022-08-09T18:31:55.346Z,100197.13
2022-08-09T18:34:24.915Z,100188.25
2022-08-09T18:36:54.452Z,100190.09
2022-08-09T18:39:25.299Z,100189.72
2022-08-09T18:41:54.273Z,100191.28
2022-08-09T18:44:25.794Z,100198.59
2022-08-09T18:47:07.699Z,100185.50
2022-08-09T18:49:43.413Z,100188.50
2022-08-09T18:52:24.943Z,100184.47
2022-08-09T18:55:02.958Z,100184.81
2022-08-09T18:57:42.717Z,100183.97
2022-08-09T19:00:16.613Z,100183.59
2022-08-09T19:02:50.838Z,100180.00
2022-08-09T19:05:41.538Z,100185.59
2022-08-09T19:08:18.258Z,100182.75
2022-08-09T19:10:47.963Z,100177.19
2022-08-09T19:13:22.971Z,100173.44
2022-08-09T19:16:04.343Z,100179.91
2022-08-09T19:18:38.517Z,100178.75
2022-08-09T19:21:10.599Z,100168.06
2022-08-09T19:24:32.568Z,100181.03
2022-08-09T19:26:34.641Z,100181.88
2022-08-09T19:29:09.667Z,100188.16
2022-08-09T19:31:51.311Z,100187.38
2022-08-09T19:34:22.758Z,100185.41
2022-08-09T19:36:53.975Z,100184.34
2022-08-09T19:39:43.900Z,100184.84
2022-08-09T19:42:14.899Z,100179.69
2022-08-09T19:44:50.971Z,100182.53
2022-08-09T19:47:23.239Z,100174.47
2022-08-09T19:50:10.331Z,100181.91
2022-08-09T19:52:49.703Z,100180.81
2022-08-09T19:55:30.916Z,100191.09
2022-08-09T19:58:16.127Z,100187.78
2022-08-09T20:00:46.822Z,100194.19
2022-08-09T20:04:07.401Z,100191.91
2022-08-09T20:06:06.265Z,100193.72
2022-08-09T20:08:51.029Z,100189.13
2022-08-09T20:11:20.673Z,100190.59
2022-08-09T20:13:54.734Z,100195.72
2022-08-09T20:16:33.519Z,100196.09
2022-08-09T20:19:48.834Z,100205.06
2022-08-09T20:21:57.549Z,100200.09
2022-08-09T20:24:33.730Z,100194.19
2022-08-09T20:27:07.810Z,100199.41
2022-08-09T20:29:37.222Z,100204.53
2022-08-09T20:32:30.694Z,100195.97
2022-08-09T20:34:55.442Z,100199.13
2022-08-09T20:37:23.893Z,100204.31
2022-08-09T20:40:17.401Z,100200.19
2022-08-09T20:42:53.156Z,100204.13
2022-08-09T20:45:57.427Z,100202.16
2022-08-09T20:48:10.966Z,100199.34
2022-08-09T20:50:47.240Z,100219.75
2022-08-09T20:53:35.342Z,100206.53
2022-08-09T20:56:05.972Z,100204.91
2022-08-09T20:58:35.558Z,100212.31
2022-08-09T21:01:32.709Z,100212.69
2022-08-09T21:05:49.192Z,100204.53
2022-08-09T21:06:44.174Z,100206.34
2022-08-09T21:09:13.800Z,100193.34
2022-08-09T21:14:33.820Z,100198.84
2022-08-09T21:18:23.294Z,100215.34
2022-08-09T21:20:17.206Z,100195.84
2022-08-09T21:22:42.522Z,100197.88
2022-08-09T21:25:38.046Z,100201.38
2022-08-09T21:28:07.433Z,100204.97
2022-08-09T21:30:42.112Z,100212.00
2022-08-09T21:33:11.044Z,100209.25
2022-08-09T21:35:50.946Z,100201.38
2022-08-09T21:38:31.353Z,100206.88
2022-08-09T21:41:00.792Z,100204.19
2022-08-09T21:43:46.769Z,100224.50
2022-08-09T21:46:18.767Z,100213.59
2022-08-09T21:48:49.369Z,100197.94
2022-08-09T21:51:24.527Z,100232.66
2022-08-09T21:54:04.442Z,100200.88
2022-08-09T21:56:43.236Z,100221.94
2022-08-09T21:59:23.356Z,100203.16
2022-08-09T22:02:00.369Z,100205.69
2022-08-09T22:04:57.025Z,100208.69
2022-08-09T22:07:35.364Z,100206.44
2022-08-09T22:10:07.749Z,100213.88
2022-08-09T22:12:38.778Z,100204.13
2022-08-09T22:15:16.485Z,100209.34
2022-08-09T22:17:47.167Z,100198.59
2022-08-09T22:20:16.786Z,100205.28
2022-08-09T22:22:50.822Z,100200.22
2022-08-09T22:26:08.495Z,100208.06
2022-08-09T22:28:08.103Z,100192.94
2022-08-09T22:30:36.864Z,100197.78
2022-08-09T22:33:09.520Z,100212.69
2022-08-09T22:36:02.760Z,100197.53
2022-08-09T22:38:26.538Z,100193.56
2022-08-09T22:40:57.855Z,100186.63
2022-08-09T22:44:02.035Z,100180.44
2022-08-09T22:48:10.397Z,100187.78
2022-08-09T22:49:09.971Z,100172.53
2022-08-09T22:51:39.439Z,100172.13
2022-08-09T22:54:12.146Z,100187.47
2022-08-09T22:56:41.568Z,100174.09
2022-08-09T22:59:55.565Z,100188.19
2022-08-09T23:01:59.093Z,100210.53
2022-08-09T23:04:32.542Z,100201.59
2022-08-09T23:08:20.995Z,100180.63
2022-08-09T23:10:10.509Z,100191.16
2022-08-09T23:12:38.818Z,100169.63
2022-08-09T23:15:08.176Z,100173.16
2022-08-09T23:17:37.366Z,100175.94
2022-08-09T23:20:09.838Z,100175.22
2022-08-09T23:22:38.469Z,100169.75
2022-08-09T23:25:08.155Z,100161.63
2022-08-09T23:27:37.131Z,100163.66
2022-08-09T23:30:25.417Z,100164.47
2022-08-09T23:32:53.855Z,100155.13
2022-08-09T23:35:23.922Z,100157.06
2022-08-09T23:37:52.527Z,100155.88
2022-08-09T23:40:22.140Z,100163.72
2022-08-09T23:42:50.340Z,100173.13
2022-08-09T23:45:37.506Z,100173.56
2022-08-09T23:48:09.063Z,100162.97
2022-08-09T23:50:38.861Z,100177.88
2022-08-09T23:53:07.212Z,100153.28
2022-08-09T23:55:38.391Z,100155.25
2022-08-09T23:58:25.550Z,100136.53
